Time;durP1;ratioP1;P1;durP2;ratioP2;P2;SDS_P1;SDS_P2;PMS_P1;PMS_P2;Temp;Humidity;BMP_temperature;BMP_pressure;BME280_temperature;BME280_humidity;BME280_pressure;Samples;Min_cycle;Max_cycle;Signal;HPM_P1;HPM_P2
2022/05/21 00:01:47;;;;;;;17.13;8.40;;;12.70;99.90;;;;;;4995462;28;20290;-81
2022/05/21 00:04:12;;;;;;;13.33;9.20;;;12.60;99.90;;;;;;4995999;28;20172;-84
2022/05/21 00:06:39;;;;;;;14.43;9.13;;;12.70;99.90;;;;;;4995707;28;20214;-83
2022/05/21 00:09:05;;;;;;;13.43;8.50;;;12.60;99.90;;;;;;4995622;28;20179;-83
2022/05/21 00:11:30;;;;;;;15.13;9.33;;;12.50;99.90;;;;;;4995449;28;20198;-84
2022/05/21 00:13:56;;;;;;;18.90;11.17;;;12.60;99.90;;;;;;4995718;28;20199;-82
2022/05/21 00:16:23;;;;;;;16.97;10.37;;;12.50;99.90;;;;;;4995578;28;20270;-83
2022/05/21 00:18:48;;;;;;;16.97;10.20;;;12.50;99.90;;;;;;4995789;28;20166;-83
2022/05/21 00:21:14;;;;;;;14.73;10.30;;;12.40;99.90;;;;;;4995304;28;20199;-83
2022/05/21 00:23:41;;;;;;;17.23;10.77;;;12.40;99.90;;;;;;4995649;28;20672;-82
2022/05/21 00:26:12;;;;;;;19.07;11.37;;;12.30;99.90;;;;;;4995337;28;20613;-83
2022/05/21 00:28:40;;;;;;;19.43;10.27;;;12.30;99.90;;;;;;4995632;28;20172;-82
2022/05/21 00:31:08;;;;;;;18.87;11.13;;;12.30;99.90;;;;;;4995615;28;20195;-83
2022/05/21 00:33:34;;;;;;;17.37;11.00;;;12.30;99.90;;;;;;4995935;28;20180;-84
2022/05/21 00:36:00;;;;;;;19.73;11.97;;;12.20;99.90;;;;;;4995759;28;20171;-84
2022/05/21 00:38:26;;;;;;;18.67;11.40;;;12.20;99.90;;;;;;4995851;28;20638;-84
2022/05/21 00:40:53;;;;;;;20.83;11.80;;;12.10;99.90;;;;;;4995542;28;20195;-83
2022/05/21 00:43:54;;;;;;;19.83;11.80;;;12.10;99.90;;;;;;4995214;28;20213;-85
2022/05/21 00:46:25;;;;;;;18.87;11.90;;;12.10;99.90;;;;;;4995473;28;20179;-84
2022/05/21 00:49:03;;;;;;;18.37;12.07;;;12.10;99.90;;;;;;4996094;28;20325;-85
2022/05/21 00:51:41;;;;;;;16.33;12.00;;;12.10;99.90;;;;;;4995500;28;20198;-84
2022/05/21 00:54:08;;;;;;;21.60;11.40;;;12.20;99.90;;;;;;4995216;28;20277;-85
2022/05/21 00:56:40;;;;;;;17.20;11.17;;;12.10;99.90;;;;;;4995226;28;20215;-84
2022/05/21 01:01:55;;;;;;;20.67;10.70;;;12.10;99.90;;;;;;5012961;28;20222;-83
2022/05/21 01:04:22;;;;;;;18.87;11.43;;;12.10;99.90;;;;;;4995125;28;20647;-83
2022/05/21 01:06:48;;;;;;;16.27;10.13;;;12.10;99.90;;;;;;5012885;28;20204;-82
2022/05/21 01:09:14;;;;;;;19.43;10.70;;;12.20;99.90;;;;;;4995261;28;20172;-82
2022/05/21 01:11:40;;;;;;;19.17;10.60;;;12.20;99.90;;;;;;4995013;28;20295;-84
2022/05/21 01:14:09;;;;;;;17.43;10.23;;;12.30;99.90;;;;;;4995222;28;20181;-82
2022/05/21 01:16:36;;;;;;;22.47;11.10;;;12.30;99.90;;;;;;5012975;28;20619;-82
2022/05/21 01:19:09;;;;;;;17.57;11.13;;;12.30;99.90;;;;;;5013005;28;20258;-82
2022/05/21 01:21:37;;;;;;;19.67;10.80;;;12.40;99.90;;;;;;4994560;28;20360;-82
2022/05/21 01:24:07;;;;;;;17.67;10.13;;;12.30;99.90;;;;;;4995018;28;20191;-82
2022/05/21 01:26:34;;;;;;;18.63;10.30;;;12.40;99.90;;;;;;5012896;28;20178;-83
2022/05/21 01:29:03;;;;;;;17.43;10.60;;;12.40;99.90;;;;;;4995091;28;20281;-83
2022/05/21 01:31:30;;;;;;;15.67;10.63;;;12.50;99.90;;;;;;4994917;28;20570;-82
2022/05/21 01:33:55;;;;;;;21.27;10.20;;;12.50;99.90;;;;;;4994888;28;20179;-83
2022/05/21 01:36:21;;;;;;;19.10;11.10;;;12.50;99.90;;;;;;4994921;28;20177;-82
2022/05/21 01:38:48;;;;;;;20.53;12.07;;;12.50;99.90;;;;;;4997173;28;20177;-84
2022/05/21 01:41:14;;;;;;;26.20;12.20;;;12.40;99.90;;;;;;4998401;28;20258;-83
2022/05/21 01:46:24;;;;;;;26.20;13.93;;;12.50;99.90;;;;;;5017468;28;20186;-83
2022/05/21 01:48:50;;;;;;;27.47;14.57;;;12.50;99.90;;;;;;5000444;28;20229;-84
2022/05/21 01:51:16;;;;;;;28.67;14.87;;;12.50;99.90;;;;;;4999972;28;20201;-83
2022/05/21 01:53:42;;;;;;;24.70;14.07;;;12.50;99.90;;;;;;4999897;28;20412;-83
2022/05/21 01:56:10;;;;;;;23.03;14.13;;;12.60;99.90;;;;;;4999819;28;20655;-82
2022/05/21 01:58:36;;;;;;;31.20;14.50;;;12.60;99.90;;;;;;5000045;28;20172;-85
2022/05/21 02:01:03;;;;;;;35.33;15.77;;;12.60;99.90;;;;;;4998886;28;20206;-80
2022/05/21 02:03:29;;;;;;;27.47;15.07;;;12.50;99.90;;;;;;4999003;28;20203;-83
2022/05/21 02:05:55;;;;;;;28.53;14.87;;;12.50;99.90;;;;;;4999793;28;20629;-82
2022/05/21 02:08:20;;;;;;;26.80;13.93;;;12.60;99.90;;;;;;4999522;28;20632;-83
2022/05/21 02:10:47;;;;;;;21.80;13.53;;;12.40;99.90;;;;;;4998967;28;20668;-84
2022/05/21 02:13:19;;;;;;;26.60;14.70;;;12.40;99.90;;;;;;4999164;28;20329;-83
2022/05/21 02:15:45;;;;;;;24.30;13.50;;;12.40;99.90;;;;;;4998730;28;20183;-85
2022/05/21 02:18:12;;;;;;;26.17;13.17;;;12.30;99.90;;;;;;4999479;28;20178;-82
2022/05/21 02:20:39;;;;;;;23.47;13.17;;;12.30;99.90;;;;;;4999168;28;20572;-84
2022/05/21 02:23:05;;;;;;;22.27;12.67;;;12.20;99.90;;;;;;4998386;28;20249;-84
2022/05/21 02:25:30;;;;;;;25.17;13.97;;;12.10;99.90;;;;;;4999257;28;20180;-83
2022/05/21 02:27:56;;;;;;;22.87;13.10;;;12.20;99.90;;;;;;4999366;28;20648;-83
2022/05/21 02:30:22;;;;;;;27.50;13.03;;;12.20;99.90;;;;;;4998620;28;20199;-86
2022/05/21 02:32:48;;;;;;;26.60;12.67;;;12.20;99.90;;;;;;4998728;28;20182;-83
2022/05/21 02:35:14;;;;;;;20.80;11.53;;;12.20;99.90;;;;;;4998572;28;20179;-81
2022/05/21 02:40:24;;;;;;;23.17;11.97;;;12.10;99.90;;;;;;5016052;28;20259;-86
2022/05/21 02:42:50;;;;;;;21.93;12.93;;;12.10;99.90;;;;;;4998334;28;20573;-85
2022/05/21 02:45:20;;;;;;;20.43;11.23;;;12.20;99.90;;;;;;4998950;28;20202;-85
2022/05/21 02:47:47;;;;;;;24.57;11.57;;;12.10;99.90;;;;;;4998314;28;20234;-84
2022/05/21 02:50:14;;;;;;;19.93;11.90;;;12.10;99.90;;;;;;4997797;28;20195;-85
2022/05/21 02:52:40;;;;;;;23.43;12.10;;;12.10;99.90;;;;;;4998166;28;20200;-83
2022/05/21 02:55:07;;;;;;;22.93;11.47;;;12.20;99.90;;;;;;4998199;28;20184;-85
2022/05/21 02:57:34;;;;;;;22.00;11.50;;;12.10;99.90;;;;;;4997887;28;20226;-84
2022/05/21 03:00:30;;;;;;;24.47;12.07;;;12.20;99.90;;;;;;4997796;28;20183;-84
2022/05/21 03:02:56;;;;;;;24.63;11.20;;;12.20;99.90;;;;;;4985706;28;20578;-85
2022/05/21 03:05:23;;;;;;;23.03;12.00;;;12.20;99.90;;;;;;4998029;28;20178;-85
2022/05/21 03:07:50;;;;;;;25.57;11.90;;;12.20;99.90;;;;;;4997744;28;20532;-84
2022/05/21 03:10:22;;;;;;;23.33;11.73;;;12.10;99.90;;;;;;4998238;28;20637;-84
2022/05/21 03:12:52;;;;;;;23.27;12.57;;;12.20;99.90;;;;;;4997331;28;20176;-83
2022/05/21 03:15:19;;;;;;;26.37;12.43;;;12.30;99.90;;;;;;4997715;28;20208;-83
2022/05/21 03:17:46;;;;;;;25.73;12.87;;;12.20;99.90;;;;;;4998155;28;20268;-84
2022/05/21 03:20:13;;;;;;;23.60;12.00;;;12.30;99.90;;;;;;4997702;28;20606;-83
2022/05/21 03:22:42;;;;;;;23.13;12.07;;;12.30;99.90;;;;;;4997465;28;20250;-84
2022/05/21 03:25:09;;;;;;;24.00;13.13;;;12.30;99.90;;;;;;4998010;28;20199;-85
2022/05/21 03:27:35;;;;;;;22.63;12.77;;;12.30;99.90;;;;;;4997307;28;20184;-84
2022/05/21 03:30:03;;;;;;;18.27;11.97;;;12.30;99.90;;;;;;5014974;28;20171;-86
2022/05/21 03:32:29;;;;;;;24.30;13.17;;;12.30;99.90;;;;;;4996825;28;20174;-83
2022/05/21 03:34:55;;;;;;;22.27;13.17;;;12.30;99.90;;;;;;4997354;28;20186;-84
2022/05/21 03:37:20;;;;;;;24.47;13.50;;;12.30;99.90;;;;;;4997582;28;20206;-84
2022/05/21 03:39:46;;;;;;;25.03;14.00;;;12.40;99.90;;;;;;4997027;28;20180;-84
2022/05/21 03:42:12;;;;;;;27.90;13.67;;;12.30;99.90;;;;;;4997626;28;20682;-84
2022/05/21 03:44:37;;;;;;;23.13;13.37;;;12.30;99.90;;;;;;4997483;28;20257;-83
2022/05/21 03:47:03;;;;;;;22.13;14.23;;;12.30;99.90;;;;;;4995958;28;20567;-84
2022/05/21 03:49:29;;;;;;;21.83;13.63;;;12.30;99.90;;;;;;4995917;28;20171;-83
2022/05/21 03:51:54;;;;;;;25.27;13.43;;;12.30;99.90;;;;;;4995518;28;20329;-84
2022/05/21 03:54:21;;;;;;;32.70;15.03;;;12.30;99.90;;;;;;4995764;28;20617;-85
2022/05/21 03:56:47;;;;;;;20.27;14.17;;;12.30;99.90;;;;;;4995790;28;20224;-84
2022/05/21 03:59:13;;;;;;;24.90;13.43;;;12.40;99.90;;;;;;4995441;28;20174;-84
2022/05/21 04:01:40;;;;;;;24.90;14.50;;;12.30;99.90;;;;;;4994541;28;20207;-84
2022/05/21 04:04:05;;;;;;;31.53;13.80;;;12.40;99.90;;;;;;4995676;28;20231;-84
2022/05/21 04:06:31;;;;;;;24.80;14.17;;;12.40;99.90;;;;;;4995762;28;20253;-84
2022/05/21 04:08:57;;;;;;;26.00;13.43;;;12.40;99.90;;;;;;4995611;28;20175;-85
2022/05/21 04:11:22;;;;;;;28.43;14.00;;;12.40;99.90;;;;;;4995164;28;20220;-84
2022/05/21 04:13:48;;;;;;;25.83;13.37;;;12.40;99.90;;;;;;4995474;28;20178;-83
2022/05/21 04:16:14;;;;;;;23.87;13.47;;;12.40;99.90;;;;;;4995419;28;20174;-84
2022/05/21 04:18:39;;;;;;;24.27;12.90;;;12.40;99.90;;;;;;4996091;28;20170;-83
2022/05/21 04:21:05;;;;;;;25.63;14.20;;;12.50;99.90;;;;;;4995341;28;20194;-84
2022/05/21 04:23:30;;;;;;;27.03;14.73;;;12.40;99.90;;;;;;4995195;28;20682;-83
2022/05/21 04:25:56;;;;;;;31.10;13.83;;;12.50;99.90;;;;;;4995644;28;20175;-84
2022/05/21 04:28:21;;;;;;;25.30;13.57;;;12.50;99.90;;;;;;4995635;28;20527;-83
2022/05/21 04:30:47;;;;;;;29.00;13.23;;;12.50;99.90;;;;;;4995557;28;20205;-83
2022/05/21 04:33:13;;;;;;;28.70;14.47;;;12.50;99.90;;;;;;4995367;28;20196;-84
2022/05/21 04:38:22;;;;;;;21.40;12.60;;;12.50;99.90;;;;;;5013432;28;20165;-85
2022/05/21 04:40:48;;;;;;;27.37;13.97;;;12.50;99.90;;;;;;4995171;28;20204;-84
2022/05/21 04:43:13;;;;;;;21.20;12.37;;;12.50;99.90;;;;;;4994938;28;20626;-84
2022/05/21 04:45:39;;;;;;;22.60;12.77;;;12.50;99.90;;;;;;5012569;28;20512;-84
2022/05/21 04:48:06;;;;;;;19.87;12.27;;;12.50;99.90;;;;;;4995328;28;20180;-84
2022/05/21 04:50:34;;;;;;;24.67;12.20;;;12.60;99.90;;;;;;4994939;28;20204;-85
2022/05/21 04:53:00;;;;;;;27.63;13.40;;;12.60;99.90;;;;;;4994775;28;20293;-84
2022/05/21 04:55:26;;;;;;;23.73;12.10;;;12.70;99.90;;;;;;4995098;28;20195;-84
2022/05/21 04:57:51;;;;;;;33.53;12.63;;;12.70;99.90;;;;;;4994973;28;20277;-83
2022/05/21 05:00:17;;;;;;;26.03;12.80;;;12.70;99.90;;;;;;5013222;28;20277;-85
2022/05/21 05:02:43;;;;;;;25.20;12.27;;;12.70;99.90;;;;;;5014906;28;20199;-86
2022/05/21 05:05:09;;;;;;;30.33;12.37;;;12.70;99.90;;;;;;4997005;28;20172;-84
2022/05/21 05:07:36;;;;;;;22.33;12.60;;;12.70;99.90;;;;;;4996759;28;20780;-84
2022/05/21 05:10:02;;;;;;;24.20;11.37;;;12.80;99.90;;;;;;4996784;28;20185;-83
2022/05/21 05:12:29;;;;;;;18.30;10.87;;;12.80;99.90;;;;;;4996328;28;20635;-84
2022/05/21 05:14:54;;;;;;;19.93;11.73;;;12.80;99.90;;;;;;5000665;28;20183;-83
2022/05/21 05:17:20;;;;;;;28.27;12.57;;;12.80;99.90;;;;;;5000217;28;20176;-84
2022/05/21 05:19:46;;;;;;;21.30;11.43;;;12.80;99.90;;;;;;5000249;28;20178;-82
2022/05/21 05:22:13;;;;;;;21.10;11.63;;;12.80;99.90;;;;;;4999720;28;20203;-84
2022/05/21 05:24:39;;;;;;;23.00;11.03;;;12.80;99.90;;;;;;5000403;28;20184;-83
2022/05/21 05:27:05;;;;;;;26.33;10.90;;;12.80;99.90;;;;;;5000129;28;20638;-84
2022/05/21 05:29:31;;;;;;;23.13;10.80;;;12.90;99.90;;;;;;5000390;28;20239;-84
2022/05/21 05:31:57;;;;;;;21.33;11.27;;;12.90;99.90;;;;;;5000114;28;20679;-84
2022/05/21 05:34:22;;;;;;;27.40;11.87;;;12.80;99.90;;;;;;5000076;28;20186;-84
2022/05/21 05:36:48;;;;;;;21.93;10.57;;;12.90;99.90;;;;;;5000520;28;20228;-84
2022/05/21 05:39:14;;;;;;;22.60;11.40;;;13.00;99.90;;;;;;5000563;28;20546;-86
2022/05/21 05:41:41;;;;;;;24.23;11.33;;;13.10;99.90;;;;;;5000370;28;20285;-84
2022/05/21 05:44:08;;;;;;;24.53;11.93;;;13.10;99.90;;;;;;5000599;28;20167;-83
2022/05/21 05:46:33;;;;;;;25.93;11.00;;;13.20;99.90;;;;;;5002691;28;20559;-84
2022/05/21 05:48:59;;;;;;;25.43;11.60;;;13.20;99.90;;;;;;5003864;28;20179;-84
2022/05/21 05:51:26;;;;;;;21.80;10.23;;;13.40;99.90;;;;;;5003019;28;20687;-86
2022/05/21 05:53:52;;;;;;;16.60;8.57;;;13.60;99.90;;;;;;5003374;28;20188;-84
2022/05/21 05:56:18;;;;;;;18.67;8.90;;;13.80;99.90;;;;;;5003032;28;20186;-86
2022/05/21 06:01:30;;;;;;;18.47;8.33;;;14.10;99.90;;;;;;5019674;28;20205;-86
2022/05/21 06:03:55;;;;;;;21.27;8.43;;;14.70;99.90;;;;;;5000861;28;20233;-83
2022/05/21 06:06:21;;;;;;;13.27;7.50;;;14.40;99.90;;;;;;5001213;28;20170;-82
2022/05/21 06:08:47;;;;;;;22.47;9.23;;;14.20;99.90;;;;;;5001087;28;20171;-85
2022/05/21 06:11:15;;;;;;;17.63;9.43;;;14.00;99.90;;;;;;5001492;28;20194;-84
2022/05/21 06:13:41;;;;;;;12.17;8.40;;;13.80;99.90;;;;;;5001430;28;20171;-83
2022/05/21 06:16:07;;;;;;;28.67;9.63;;;13.90;99.90;;;;;;5001616;28;20700;-84
2022/05/21 06:18:32;;;;;;;19.50;9.10;;;13.70;99.90;;;;;;5002584;28;20261;-85
2022/05/21 06:21:03;;;;;;;24.53;10.10;;;13.70;99.90;;;;;;5001504;28;20194;-83
2022/05/21 06:23:31;;;;;;;23.47;10.17;;;13.70;99.90;;;;;;5001537;28;20193;-84
2022/05/21 06:25:58;;;;;;;19.23;10.27;;;13.70;99.90;;;;;;5000058;28;20182;-84
2022/05/21 06:28:23;;;;;;;19.83;9.57;;;13.70;99.90;;;;;;5001018;28;20214;-85
2022/05/21 06:30:49;;;;;;;22.13;10.17;;;13.60;99.90;;;;;;5001203;28;20201;-84
2022/05/21 06:33:17;;;;;;;13.33;9.30;;;13.60;99.90;;;;;;5000666;28;20181;-83
2022/05/21 06:35:44;;;;;;;23.43;10.10;;;13.60;99.90;;;;;;5001382;28;20841;-84
2022/05/21 06:38:10;;;;;;;21.40;10.07;;;13.80;99.90;;;;;;5000684;28;20647;-85
2022/05/21 06:40:36;;;;;;;20.07;9.53;;;13.70;99.90;;;;;;5033678;28;20225;-85
2022/05/21 06:43:03;;;;;;;24.40;9.63;;;13.80;99.90;;;;;;5000571;28;20248;-85
2022/05/21 06:45:30;;;;;;;18.53;10.00;;;13.80;99.90;;;;;;5001864;28;20164;-86
2022/05/21 06:48:00;;;;;;;21.27;10.37;;;13.80;99.90;;;;;;5000684;28;20174;-84
2022/05/21 06:50:27;;;;;;;15.73;9.73;;;13.80;99.90;;;;;;5001971;28;20203;-84
2022/05/21 06:52:53;;;;;;;20.03;9.93;;;13.90;99.90;;;;;;5000948;28;20197;-82
2022/05/21 06:55:20;;;;;;;21.17;9.80;;;13.90;99.90;;;;;;5000848;28;20173;-84
2022/05/21 06:57:45;;;;;;;22.93;9.37;;;13.90;99.90;;;;;;5000024;28;20299;-83
2022/05/21 07:00:11;;;;;;;18.87;9.63;;;14.10;99.90;;;;;;4999450;28;20296;-84
2022/05/21 07:02:37;;;;;;;21.10;9.43;;;14.20;99.90;;;;;;5000947;28;20203;-83
2022/05/21 07:07:47;;;;;;;15.77;8.20;;;14.70;99.90;;;;;;5017960;28;20177;-85
2022/05/21 07:10:24;;;;;;;16.33;7.80;;;15.10;99.90;;;;;;5000148;28;20190;-82
2022/05/21 07:12:51;;;;;;;17.63;8.23;;;15.30;99.90;;;;;;4999407;28;20532;-87
2022/05/21 07:15:17;;;;;;;17.97;7.67;;;15.40;99.90;;;;;;4999254;28;20175;-85
2022/05/21 07:17:44;;;;;;;15.03;6.47;;;15.90;99.90;;;;;;4999108;28;20174;-86
2022/05/21 07:20:15;;;;;;;16.70;6.47;;;16.60;99.90;;;;;;4999250;28;20249;-85
2022/05/21 07:22:46;;;;;;;17.47;6.30;;;16.50;99.90;;;;;;4999052;28;20199;-85
2022/05/21 07:25:19;;;;;;;14.27;6.50;;;16.70;99.90;;;;;;4999746;28;20615;-86
2022/05/21 07:27:45;;;;;;;12.37;6.03;;;16.50;99.90;;;;;;4999174;28;20174;-84
2022/05/21 07:30:11;;;;;;;15.43;6.30;;;16.90;99.90;;;;;;4997847;28;20186;-86
2022/05/21 07:32:37;;;;;;;15.63;7.57;;;16.90;99.90;;;;;;4998579;28;20578;-86
2022/05/21 07:35:09;;;;;;;14.37;6.20;;;16.90;99.90;;;;;;4998473;28;20182;-85
2022/05/21 07:37:35;;;;;;;15.50;6.00;;;16.60;99.90;;;;;;5016887;28;20308;-85
2022/05/21 07:40:02;;;;;;;17.77;6.30;;;17.00;99.90;;;;;;4998556;28;20177;-86
2022/05/21 07:42:28;;;;;;;17.03;6.80;;;16.50;99.90;;;;;;4998677;28;20199;-86
2022/05/21 07:44:53;;;;;;;18.10;7.63;;;16.40;99.90;;;;;;5016188;28;20669;-86
2022/05/21 07:47:22;;;;;;;18.80;6.87;;;16.40;99.90;;;;;;4998652;28;20174;-83
2022/05/21 07:49:51;;;;;;;14.97;6.50;;;16.80;99.90;;;;;;4998375;28;20257;-86
2022/05/21 07:52:20;;;;;;;16.47;7.13;;;16.70;99.90;;;;;;4997938;28;20208;-86
2022/05/21 07:54:46;;;;;;;18.40;6.90;;;16.40;99.90;;;;;;4998673;28;20639;-86
2022/05/21 07:57:12;;;;;;;17.83;6.40;;;16.50;99.90;;;;;;4998051;28;20175;-86
2022/05/21 07:59:38;;;;;;;15.23;6.47;;;16.30;99.90;;;;;;4998111;28;20174;-89
2022/05/21 08:02:05;;;;;;;17.57;6.70;;;16.20;99.90;;;;;;4997552;28;20209;-86
2022/05/21 08:04:30;;;;;;;13.07;6.27;;;16.20;99.90;;;;;;5030145;28;20766;-85
2022/05/21 08:06:56;;;;;;;13.23;6.90;;;16.40;99.90;;;;;;4996471;28;20269;-85
2022/05/21 08:09:24;;;;;;;13.00;6.47;;;16.70;99.90;;;;;;5014392;28;20181;-84
2022/05/21 08:11:50;;;;;;;22.17;6.83;;;16.60;99.90;;;;;;4997711;28;20205;-85
2022/05/21 08:14:16;;;;;;;15.30;7.40;;;16.40;99.90;;;;;;4997348;28;20167;-83
2022/05/21 08:16:41;;;;;;;19.57;7.80;;;16.00;99.90;;;;;;4997297;28;20206;-84
2022/05/21 08:19:07;;;;;;;18.43;7.50;;;16.00;99.90;;;;;;4997539;28;20638;-85
2022/05/21 08:21:33;;;;;;;19.77;7.87;;;16.00;99.90;;;;;;4997128;28;20208;-83
2022/05/21 08:26:57;;;;;;;22.23;7.67;;;15.70;99.90;;;;;;5014788;28;20526;-86
2022/05/21 08:29:34;;;;;;;24.70;8.00;;;15.80;99.90;;;;;;4997913;28;20646;-87
2022/05/21 08:32:02;;;;;;;21.43;7.00;;;16.10;99.90;;;;;;4996918;28;20190;-86
2022/05/21 08:34:29;;;;;;;13.13;6.40;;;16.70;99.90;;;;;;4997462;28;20202;-84
2022/05/21 08:36:55;;;;;;;14.03;6.43;;;17.10;99.90;;;;;;4997299;28;20186;-84
2022/05/21 08:39:22;;;;;;;10.83;6.50;;;16.90;99.90;;;;;;4997778;28;20177;-85
2022/05/21 08:42:04;;;;;;;15.33;7.20;;;17.70;99.90;;;;;;4996763;28;20337;-87
2022/05/21 08:44:54;;;;;;;14.70;5.70;;;17.40;99.90;;;;;;4997231;28;20213;-85
2022/05/21 08:47:24;;;;;;;20.30;5.80;;;18.10;99.90;;;;;;4996369;28;20170;-86
2022/05/21 08:49:50;;;;;;;17.17;6.00;;;18.00;99.90;;;;;;4997000;28;20177;-85
2022/05/21 08:52:35;;;;;;;18.63;6.20;;;17.80;99.90;;;;;;4996789;28;20175;-85
2022/05/21 08:55:05;;;;;;;15.33;6.20;;;17.60;99.90;;;;;;4996928;28;20217;-86
2022/05/21 08:57:56;;;;;;;18.97;5.33;;;17.50;99.90;;;;;;4996364;28;20175;-88
2022/05/21 09:00:37;;;;;;;13.03;6.07;;;17.50;99.90;;;;;;4994537;28;20198;-85
2022/05/21 09:03:13;;;;;;;9.77;5.47;;;17.00;99.90;;;;;;4996202;28;20236;-88
2022/05/21 09:05:43;;;;;;;13.57;4.93;;;17.60;99.90;;;;;;4996040;28;20224;-85
2022/05/21 09:08:14;;;;;;;8.57;4.57;;;18.30;99.90;;;;;;4995443;28;20577;-86
2022/05/21 09:11:01;;;;;;;13.33;4.93;;;18.10;99.90;;;;;;4995046;28;20225;-84
2022/05/21 09:13:32;;;;;;;12.57;5.33;;;17.80;99.90;;;;;;4995329;28;20178;-84
2022/05/21 09:18:42;;;;;;;14.50;5.00;;;18.20;99.90;;;;;;5013384;28;20258;-84
2022/05/21 09:21:16;;;;;;;16.90;5.37;;;17.90;99.90;;;;;;4995297;28;20230;-86
2022/05/21 09:23:52;;;;;;;15.23;5.47;;;17.70;99.90;;;;;;4995540;28;20186;-85
2022/05/21 09:26:25;;;;;;;13.83;4.80;;;17.80;99.90;;;;;;4996572;28;20159;-85
2022/05/21 09:28:52;;;;;;;13.20;5.00;;;18.20;99.90;;;;;;4997203;28;20167;-88
2022/05/21 09:31:28;;;;;;;15.83;5.17;;;18.10;99.90;;;;;;4996425;28;20190;-85
2022/05/21 09:33:55;;;;;;;9.43;4.43;;;18.40;99.90;;;;;;4996300;28;20169;-89
2022/05/21 09:36:33;;;;;;;13.07;4.50;;;18.70;99.90;;;;;;4995651;28;20178;-86
2022/05/21 09:38:59;;;;;;;11.97;4.27;;;18.40;99.90;;;;;;4995501;28;20654;-88
2022/05/21 09:41:27;;;;;;;12.17;4.80;;;18.00;99.90;;;;;;4995191;28;20197;-88
2022/05/21 09:46:42;;;;;;;8.90;3.93;;;18.20;99.90;;;;;;5011954;28;20206;-87
2022/05/21 09:49:29;;;;;;;14.17;4.30;;;19.40;99.90;;;;;;4994667;28;20193;-87
2022/05/21 09:51:59;;;;;;;13.97;4.10;;;19.50;99.90;;;;;;5012618;28;20662;-87
2022/05/21 09:54:32;;;;;;;9.07;4.17;;;19.90;99.90;;;;;;4993604;28;20190;-87
2022/05/21 09:56:59;;;;;;;11.65;3.90;;;20.30;99.90;;;;;;4993550;28;20167;-87
2022/05/21 09:59:28;;;;;;;11.43;3.97;;;20.00;99.90;;;;;;4993505;28;20187;-87
2022/05/21 10:01:58;;;;;;;10.38;4.18;;;19.20;99.90;;;;;;4997179;28;20203;-82
2022/05/21 10:04:36;;;;;;;11.40;3.72;;;18.70;99.90;;;;;;4983464;28;20261;-81
2022/05/21 10:13:04;;;;;;;11.67;3.50;;;19.00;99.90;;;;;;5006679;28;20178;-82
2022/05/21 10:15:43;;;;;;;11.93;4.17;;;20.60;99.90;;;;;;5014709;28;20589;-82
2022/05/21 10:18:16;;;;;;;9.73;3.80;;;20.20;99.90;;;;;;4996739;28;20178;-83
2022/05/21 10:20:46;;;;;;;13.70;3.83;;;20.10;99.90;;;;;;4996948;28;20191;-84
2022/05/21 10:23:39;;;;;;;7.80;3.70;;;20.60;99.90;;;;;;4996276;28;20617;-82
2022/05/21 10:26:32;;;;;;;13.43;3.53;;;20.80;99.90;;;;;;4996310;28;20190;-82
2022/05/21 10:29:32;;;;;;;12.25;3.25;;;21.20;99.90;;;;;;4996293;28;20215;-83
2022/05/21 10:32:47;;;;;;;8.70;2.97;;;20.80;99.90;;;;;;5000094;28;20579;-82
2022/05/21 10:35:16;;;;;;;12.10;3.10;;;21.30;99.90;;;;;;4999324;28;20171;-82
2022/05/21 10:37:53;;;;;;;9.32;2.95;;;19.90;99.90;;;;;;4998108;28;20201;-82
2022/05/21 10:40:29;;;;;;;12.45;3.42;;;19.70;99.90;;;;;;4998233;28;20606;-83
2022/05/21 10:43:01;;;;;;;9.07;3.22;;;19.60;99.90;;;;;;4997337;28;20293;-83
2022/05/21 10:45:35;;;;;;;11.68;3.78;;;20.10;99.90;;;;;;4997855;28;20175;-82
2022/05/21 10:48:15;;;;;;;14.93;4.90;;;19.50;99.90;;;;;;4998330;28;20198;-83
2022/05/21 10:50:54;;;;;;;10.02;4.25;;;19.50;99.90;;;;;;4998515;28;20202;-83
2022/05/21 10:53:20;;;;;;;12.15;4.35;;;19.00;99.90;;;;;;4997594;28;20198;-83
2022/05/21 10:56:04;;;;;;;11.90;4.50;;;19.30;99.90;;;;;;4997698;28;20179;-82
2022/05/21 10:58:42;;;;;;;11.53;4.23;;;19.10;99.90;;;;;;4998495;28;20201;-81
2022/05/21 11:01:16;;;;;;;12.13;4.67;;;18.60;99.90;;;;;;4997933;28;20201;-83
2022/05/21 11:04:01;;;;;;;14.87;4.33;;;19.30;99.90;;;;;;4998609;28;20567;-82
2022/05/21 11:07:11;;;;;;;9.63;4.00;;;19.30;99.90;;;;;;4998043;28;20658;-82
2022/05/21 11:09:50;;;;;;;9.63;3.43;;;19.80;99.90;;;;;;4998129;28;20171;-82
2022/05/21 11:12:27;;;;;;;11.88;4.75;;;19.70;99.90;;;;;;4997324;28;20176;-82
2022/05/21 11:15:05;;;;;;;14.18;4.57;;;19.00;99.90;;;;;;4999945;28;20174;-83
2022/05/21 11:18:09;;;;;;;11.73;3.87;;;18.90;99.90;;;;;;4998675;28;20175;-82
2022/05/21 11:20:43;;;;;;;7.97;3.77;;;18.70;99.90;;;;;;4983180;28;20202;-80
2022/05/21 11:23:29;;;;;;;11.97;3.90;;;18.70;99.90;;;;;;5000554;28;20233;-81
2022/05/21 11:26:04;;;;;;;10.23;3.30;;;18.90;99.90;;;;;;4999743;28;20170;-82
2022/05/21 11:29:10;;;;;;;13.73;3.97;;;19.50;99.90;;;;;;4999325;28;20201;-82
2022/05/21 11:37:23;;;;;;;7.37;2.90;;;18.40;99.90;;;;;;5014570;28;20186;-83
2022/05/21 11:39:54;;;;;;;13.93;3.57;;;18.70;99.90;;;;;;4996480;28;20166;-84
2022/05/21 11:42:27;;;;;;;13.37;3.37;;;18.90;99.90;;;;;;5000693;28;20298;-83
2022/05/21 11:44:56;;;;;;;13.80;3.87;;;19.20;99.90;;;;;;5001764;28;20282;-83
2022/05/21 11:47:25;;;;;;;10.90;3.73;;;19.80;99.90;;;;;;5002263;28;20537;-84
2022/05/21 11:50:11;;;;;;;12.97;4.97;;;19.70;99.90;;;;;;5003287;28;20265;-86
2022/05/21 11:52:37;;;;;;;14.97;4.67;;;19.20;99.90;;;;;;5003268;28;20281;-83
2022/05/21 11:55:11;;;;;;;18.07;7.30;;;19.00;99.90;;;;;;4999224;28;20277;-82
2022/05/21 11:57:45;;;;;;;16.23;4.90;;;18.50;99.90;;;;;;4996814;28;20818;-83
2022/05/21 12:00:25;;;;;;;14.33;5.20;;;19.00;99.90;;;;;;4996037;28;20206;-84
2022/05/21 12:02:54;;;;;;;11.60;4.50;;;19.50;99.90;;;;;;5001075;28;20217;-85
2022/05/21 12:05:38;;;;;;;11.25;4.82;;;19.70;99.90;;;;;;4998549;28;20174;-83
2022/05/21 12:08:22;;;;;;;12.27;4.10;;;19.90;99.90;;;;;;4999090;28;20301;-83
2022/05/21 12:11:04;;;;;;;11.85;4.05;;;19.70;99.90;;;;;;4998652;28;20191;-83
2022/05/21 12:13:33;;;;;;;9.00;3.58;;;19.50;99.90;;;;;;4996521;28;20186;-83
2022/05/21 12:16:26;;;;;;;12.43;3.47;;;19.00;99.90;;;;;;4982815;28;20194;-83
2022/05/21 12:18:57;;;;;;;10.85;3.28;;;19.70;99.90;;;;;;4971580;28;20191;-85
2022/05/21 12:21:43;;;;;;;11.17;3.30;;;19.60;99.90;;;;;;4978607;28;20284;-83
2022/05/21 12:24:40;;;;;;;9.00;2.93;;;19.50;99.90;;;;;;4977940;28;20195;-85
2022/05/21 12:27:24;;;;;;;11.43;2.87;;;19.00;99.90;;;;;;4977544;28;20245;-84
2022/05/21 12:29:58;;;;;;;11.90;4.00;;;18.90;99.90;;;;;;4979636;28;20171;-83
2022/05/21 12:32:24;;;;;;;8.10;3.57;;;19.10;99.90;;;;;;4977414;28;20274;-82
2022/05/21 12:35:14;;;;;;;10.87;3.90;;;19.10;99.90;;;;;;4978973;28;20172;-81
2022/05/21 12:37:48;;;;;;;12.83;4.10;;;18.80;99.90;;;;;;4977298;28;20581;-83
2022/05/21 12:40:36;;;;;;;9.97;4.00;;;18.50;99.90;;;;;;4976818;28;20311;-82
2022/05/21 12:43:12;;;;;;;8.60;4.20;;;18.60;99.90;;;;;;4940697;28;20219;-83
2022/05/21 12:45:42;;;;;;;11.07;4.10;;;18.60;99.90;;;;;;4977343;28;20175;-84
2022/05/21 12:48:44;;;;;;;13.83;4.07;;;18.20;99.90;;;;;;4976115;28;20203;-81
2022/05/21 12:51:24;;;;;;;15.23;4.37;;;18.20;99.90;;;;;;4898169;29;20249;-82
2022/05/21 12:53:50;;;;;;;13.07;3.80;;;18.10;99.90;;;;;;4967338;28;20889;-84
2022/05/21 12:56:39;;;;;;;10.63;3.57;;;18.00;99.90;;;;;;4979541;28;20190;-83
2022/05/21 12:59:11;;;;;;;10.87;3.40;;;18.20;99.90;;;;;;4978704;28;20599;-84
2022/05/21 13:01:43;;;;;;;9.43;3.20;;;18.00;99.90;;;;;;4983205;28;20199;-85
2022/05/21 13:04:27;;;;;;;10.20;3.60;;;17.70;99.90;;;;;;4981157;28;20164;-83
2022/05/21 13:07:04;;;;;;;11.17;3.70;;;17.70;99.90;;;;;;4978484;28;20179;-83
2022/05/21 13:09:35;;;;;;;7.80;3.23;;;17.80;99.90;;;;;;4960163;28;20225;-83
2022/05/21 13:12:03;;;;;;;9.53;3.60;;;18.00;99.90;;;;;;4977383;28;20241;-83
2022/05/21 13:14:36;;;;;;;9.57;3.40;;;18.10;99.90;;;;;;4976271;28;20179;-84
2022/05/21 13:17:02;;;;;;;8.13;3.40;;;18.20;99.90;;;;;;4976934;28;20251;-82
2022/05/21 13:19:55;;;;;;;7.23;3.20;;;18.30;99.90;;;;;;4978265;28;20155;-84
2022/05/21 13:22:44;;;;;;;11.13;3.73;;;18.50;99.90;;;;;;4975253;28;20664;-84
2022/05/21 13:25:12;;;;;;;9.53;3.07;;;18.80;99.90;;;;;;4984415;28;20206;-82
2022/05/21 13:27:54;;;;;;;12.20;2.80;;;19.40;99.90;;;;;;4994315;28;20291;-83